Sl Cook — VMQ9341 — position and weather

sailwx.info

Track history (hours):
 
Tides and Currents Weather Stations Pressure Air Temp Water Temp Dewpoint Dewpoint Depression Visibility Wind Speed Wind Dir Waves Ship Positions

Sl Cook

Last reported at 2017-Nov-19 20:43 UTC. Time now 2017-Nov-22 20:46 UTC.
Position S 27°24' E 153°09'.

Length 34 m; draft 4.4 m.

Type: Tug. MMSI: 503546000.

Date/timePositionNaut miles runAvg speedWind from/ knotsBaromVisibWave heightAir tempDewpointWater temp
2017-Nov-19 20:43S 27°24' E 153°09'2 9.8
2017-Nov-19 20:30S 27°22' E 153°10'0 0.3
2017-Nov-19 19:56S 27°22' E 153°10'3 5.3
2017-Nov-19 19:22S 27°25' E 153°09'0 0.2
2017-Nov-19 19:00S 27°25' E 153°09'1 0.2
2017-Nov-19 12:19S 27°24' E 153°09'2 5.6
2017-Nov-19 12:00S 27°22' E 153°10'0 0.4
2017-Nov-19 11:30S 27°22' E 153°10'2 3.1
2017-Nov-19 11:00S 27°21' E 153°11'2 4.6
2017-Nov-19 10:30S 27°23' E 153°10'1 0.6
2017-Nov-19 08:50S 27°24' E 153°09'1 2.6
2017-Nov-19 08:30S 27°23' E 153°10'0 0.2
2017-Nov-19 08:00S 27°23' E 153°09'2 2.9
2017-Nov-19 07:28S 27°22' E 153°10'0 0.0
2017-Nov-19 00:02S 27°22' E 153°10'0 0.0
2017-Nov-19 00:00S 27°22' E 153°10'0 0.6
2017-Nov-18 23:29S 27°22' E 153°10'0 0.3
2017-Nov-18 22:50S 27°22' E 153°10'1 0.0
2017-Nov-17 22:58S 27°23' E 153°10'0 0.0
2017-Nov-17 16:31S 27°23' E 153°10'0 2.2
2017-Nov-17 16:28S 27°23' E 153°10'0 0.1
2017-Nov-17 15:56S 27°23' E 153°10'0 0.3
2017-Nov-17 15:26S 27°23' E 153°10'0 1.1
2017-Nov-17 15:00S 27°23' E 153°09'1 1.1
2017-Nov-17 14:30S 27°24' E 153°09'0 0.0
2017-Nov-16 13:50S 27°24' E 153°09'1 2.7
2017-Nov-16 13:30S 27°23' E 153°10'1 1.2
2017-Nov-16 13:00S 27°23' E 153°10'1 2.8
2017-Nov-16 12:31S 27°24' E 153°09'0 0.0
2017-Nov-15 11:04S 27°24' E 153°09'1 6.4
2017-Nov-15 10:58S 27°23' E 153°09'0 0.9
2017-Nov-15 10:29S 27°23' E 153°10'0 0.0
2017-Nov-15 10:00S 27°23' E 153°10'1 1.0
2017-Nov-15 09:29S 27°23' E 153°10'0 0.6
2017-Nov-15 09:00S 27°23' E 153°10'1 0.1
2017-Nov-14 16:33S 27°24' E 153°09'0 0.0
2017-Nov-14 16:23S 27°24' E 153°09'0 0.0
2017-Nov-14 16:00S 27°24' E 153°09'0 0.1
2017-Nov-14 15:29S 27°24' E 153°09'0 0.1
2017-Nov-14 15:00S 27°24' E 153°09'0 0.0
2017-Nov-14 14:30S 27°24' E 153°09'0 0.0
2017-Nov-14 13:58S 27°24' E 153°09'2 0.2
2017-Nov-14 02:56S 27°22' E 153°10'1 0.0
2017-Nov-12 22:16S 27°23' E 153°09'1 0.1
2017-Nov-12 12:51S 27°24' E 153°09'3 5.7
2017-Nov-12 12:22S 27°22' E 153°11'0 0.1
2017-Nov-12 12:00S 27°22' E 153°11'1 1.7
2017-Nov-12 11:23S 27°21' E 153°11'3 7.2
2017-Nov-12 10:55S 27°23' E 153°09'1 0.1
2017-Nov-12 04:47S 27°24' E 153°09'2 2.0
2017-Nov-12 03:54S 27°22' E 153°10'2 0.1
2017-Nov-11 09:47S 27°24' E 153°09'2 8.1
2017-Nov-11 09:30S 27°22' E 153°10'0 0.6
2017-Nov-11 08:58S 27°22' E 153°11'0 0.6
2017-Nov-11 08:29S 27°22' E 153°11'0 0.1
2017-Nov-11 07:58S 27°22' E 153°11'1 2.3
2017-Nov-11 07:30S 27°23' E 153°10'0 0.0
2017-Nov-11 06:24S 27°23' E 153°10'0 0.3
2017-Nov-11 05:58S 27°23' E 153°10'1 0.1
2017-Nov-10 14:43S 27°24' E 153°09'1 5.9
2017-Nov-10 14:30S 27°25' E 153°09'1 1.0
2017-Nov-10 13:20S 27°24' E 153°09'0 0.0
2017-Nov-10 05:01S 27°24' E 153°09'0 7.4
2017-Nov-10 05:00S 27°24' E 153°09'2 3.9
2017-Nov-10 04:25S 27°22' E 153°10'0 0.1
2017-Nov-09 21:38S 27°22' E 153°11'0 0.3
2017-Nov-09 21:19S 27°22' E 153°11'0 0.2
2017-Nov-09 21:00S 27°22' E 153°11'  
Track history (hours):
 
Tides and Currents Weather Stations Pressure Air Temp Water Temp Dewpoint Dewpoint Depression Visibility Wind Speed Wind Dir Waves Ship Positions

Sl Cook

Last reported at 2017-Nov-19 20:43 UTC. Time now 2017-Nov-22 20:46 UTC.
Position S 27°24' E 153°09'.

Length 34 m; draft 4.4 m.

Type: Tug. MMSI: 503546000.

Date/timePositionNaut miles runAvg speedWind from/ knotsBaromVisibWave heightAir tempDewpointWater temp
2017-Nov-19 20:43S 27°24' E 153°09'2 9.8
2017-Nov-19 20:30S 27°22' E 153°10'0 0.3
2017-Nov-19 19:56S 27°22' E 153°10'3 5.3
2017-Nov-19 19:22S 27°25' E 153°09'0 0.2
2017-Nov-19 19:00S 27°25' E 153°09'1 0.2
2017-Nov-19 12:19S 27°24' E 153°09'2 5.6
2017-Nov-19 12:00S 27°22' E 153°10'0 0.4
2017-Nov-19 11:30S 27°22' E 153°10'2 3.1
2017-Nov-19 11:00S 27°21' E 153°11'2 4.6
2017-Nov-19 10:30S 27°23' E 153°10'1 0.6
2017-Nov-19 08:50S 27°24' E 153°09'1 2.6
2017-Nov-19 08:30S 27°23' E 153°10'0 0.2
2017-Nov-19 08:00S 27°23' E 153°09'2 2.9
2017-Nov-19 07:28S 27°22' E 153°10'0 0.0
2017-Nov-19 00:02S 27°22' E 153°10'0 0.0
2017-Nov-19 00:00S 27°22' E 153°10'0 0.6
2017-Nov-18 23:29S 27°22' E 153°10'0 0.3
2017-Nov-18 22:50S 27°22' E 153°10'1 0.0
2017-Nov-17 22:58S 27°23' E 153°10'0 0.0
2017-Nov-17 16:31S 27°23' E 153°10'0 2.2
2017-Nov-17 16:28S 27°23' E 153°10'0 0.1
2017-Nov-17 15:56S 27°23' E 153°10'0 0.3
2017-Nov-17 15:26S 27°23' E 153°10'0 1.1
2017-Nov-17 15:00S 27°23' E 153°09'1 1.1
2017-Nov-17 14:30S 27°24' E 153°09'0 0.0
2017-Nov-16 13:50S 27°24' E 153°09'1 2.7
2017-Nov-16 13:30S 27°23' E 153°10'1 1.2
2017-Nov-16 13:00S 27°23' E 153°10'1 2.8
2017-Nov-16 12:31S 27°24' E 153°09'0 0.0
2017-Nov-15 11:04S 27°24' E 153°09'1 6.4
2017-Nov-15 10:58S 27°23' E 153°09'0 0.9
2017-Nov-15 10:29S 27°23' E 153°10'0 0.0
2017-Nov-15 10:00S 27°23' E 153°10'1 1.0
2017-Nov-15 09:29S 27°23' E 153°10'0 0.6
2017-Nov-15 09:00S 27°23' E 153°10'1 0.1
2017-Nov-14 16:33S 27°24' E 153°09'0 0.0
2017-Nov-14 16:23S 27°24' E 153°09'0 0.0
2017-Nov-14 16:00S 27°24' E 153°09'0 0.1
2017-Nov-14 15:29S 27°24' E 153°09'0 0.1
2017-Nov-14 15:00S 27°24' E 153°09'0 0.0
2017-Nov-14 14:30S 27°24' E 153°09'0 0.0
2017-Nov-14 13:58S 27°24' E 153°09'2 0.2
2017-Nov-14 02:56S 27°22' E 153°10'1 0.0
2017-Nov-12 22:16S 27°23' E 153°09'1 0.1
2017-Nov-12 12:51S 27°24' E 153°09'3 5.7
2017-Nov-12 12:22S 27°22' E 153°11'0 0.1
2017-Nov-12 12:00S 27°22' E 153°11'1 1.7
2017-Nov-12 11:23S 27°21' E 153°11'3 7.2
2017-Nov-12 10:55S 27°23' E 153°09'1 0.1
2017-Nov-12 04:47S 27°24' E 153°09'2 2.0
2017-Nov-12 03:54S 27°22' E 153°10'2 0.1
2017-Nov-11 09:47S 27°24' E 153°09'2 8.1
2017-Nov-11 09:30S 27°22' E 153°10'0 0.6
2017-Nov-11 08:58S 27°22' E 153°11'0 0.6
2017-Nov-11 08:29S 27°22' E 153°11'0 0.1
2017-Nov-11 07:58S 27°22' E 153°11'1 2.3
2017-Nov-11 07:30S 27°23' E 153°10'0 0.0
2017-Nov-11 06:24S 27°23' E 153°10'0 0.3
2017-Nov-11 05:58S 27°23' E 153°10'1 0.1
2017-Nov-10 14:43S 27°24' E 153°09'1 5.9
2017-Nov-10 14:30S 27°25' E 153°09'1 1.0
2017-Nov-10 13:20S 27°24' E 153°09'0 0.0
2017-Nov-10 05:01S 27°24' E 153°09'0 7.4
2017-Nov-10 05:00S 27°24' E 153°09'2 3.9
2017-Nov-10 04:25S 27°22' E 153°10'0 0.1
2017-Nov-09 21:38S 27°22' E 153°11'0 0.3
2017-Nov-09 21:19S 27°22' E 153°11'0 0.2
2017-Nov-09 21:00S 27°22' E 153°11'  

Dump ship's entire track history